Time;durP1;ratioP1;P1;durP2;ratioP2;P2;SDS_P1;SDS_P2;PMS_P1;PMS_P2;Temp;Humidity;BMP_temperature;BMP_pressure;BME280_temperature;BME280_humidity;BME280_pressure;Samples;Min_cycle;Max_cycle;Signal;HPM_P1;HPM_P2
2021/11/15 00:00:38;;;;;;;63.33;23.50;;;;;;;12.77;70.72;100731.81;4944922;28;20036;-72
2021/11/15 00:03:05;;;;;;;58.15;22.38;;;;;;;12.82;70.11;100729.22;4935693;28;20032;-72
2021/11/15 00:05:31;;;;;;;60.45;21.88;;;;;;;12.65;71.30;100728.25;4925530;28;20042;-74
2021/11/15 00:07:58;;;;;;;59.10;22.70;;;;;;;12.56;71.21;100739.41;4941424;28;20611;-72
2021/11/15 00:10:23;;;;;;;59.58;23.20;;;;;;;12.55;71.24;100728.84;4945319;28;20061;-72
2021/11/15 00:12:52;;;;;;;53.97;23.08;;;;;;;12.57;71.45;100737.56;4931492;28;20503;-72
2021/11/15 00:15:20;;;;;;;57.67;23.95;;;;;;;12.50;71.26;100729.53;4940432;28;20062;-72
2021/11/15 00:17:46;;;;;;;56.58;23.35;;;;;;;12.62;71.17;100729.56;4928753;28;20137;-72
2021/11/15 00:20:13;;;;;;;56.85;22.63;;;;;;;12.64;71.02;100732.03;4941060;28;20106;-72
2021/11/15 00:22:39;;;;;;;57.35;24.35;;;;;;;12.45;71.33;100724.00;4937847;28;20043;-72
2021/11/15 00:25:06;;;;;;;59.92;25.52;;;;;;;12.33;72.07;100729.34;4922430;28;20031;-73
2021/11/15 00:27:31;;;;;;;70.28;26.15;;;;;;;12.36;71.74;100717.28;4939558;28;20051;-72
2021/11/15 00:29:59;;;;;;;63.33;25.55;;;;;;;12.49;71.29;100725.19;4922172;28;20039;-72
2021/11/15 00:32:25;;;;;;;65.25;26.92;;;;;;;12.53;70.99;100720.97;4945244;28;20453;-72
2021/11/15 00:34:51;;;;;;;56.25;25.63;;;;;;;12.58;71.05;100725.69;4935139;28;20554;-72
2021/11/15 00:37:17;;;;;;;65.28;27.58;;;;;;;12.50;71.05;100728.72;4956959;28;20035;-74
2021/11/15 00:39:43;;;;;;;60.40;28.48;;;;;;;12.50;71.46;100729.53;4936996;28;20099;-72
2021/11/15 00:42:09;;;;;;;60.13;27.45;;;;;;;12.51;71.01;100728.47;4936404;28;20044;-72
2021/11/15 00:44:34;;;;;;;59.45;28.60;;;;;;;12.48;71.20;100725.44;4930302;28;20947;-72
2021/11/15 00:47:00;;;;;;;59.20;28.70;;;;;;;12.55;71.13;100715.34;4942645;28;20047;-72
2021/11/15 00:49:25;;;;;;;59.20;27.70;;;;;;;12.62;70.76;100710.66;4939624;28;20043;-72
2021/11/15 00:51:51;;;;;;;63.38;28.20;;;;;;;12.68;70.71;100714.28;4944536;28;20512;-72
2021/11/15 00:54:17;;;;;;;67.00;28.02;;;;;;;12.66;70.61;100714.53;4945124;28;20126;-72
2021/11/15 00:56:42;;;;;;;61.65;27.63;;;;;;;12.69;70.23;100714.06;4942128;28;20042;-73
2021/11/15 00:59:08;;;;;;;56.75;26.85;;;;;;;12.69;70.37;100713.22;4932441;28;20059;-72
2021/11/15 01:01:33;;;;;;;57.03;27.75;;;;;;;12.57;70.76;100707.81;4933302;28;20160;-72
2021/11/15 01:04:01;;;;;;;58.78;27.73;;;;;;;12.59;70.60;100695.72;4942473;28;20405;-72
2021/11/15 01:06:27;;;;;;;59.42;26.40;;;;;;;12.68;70.50;100703.47;4927106;28;20035;-73
2021/11/15 01:08:53;;;;;;;64.63;26.77;;;;;;;12.70;70.29;100702.19;4945277;28;20031;-72
2021/11/15 01:11:19;;;;;;;54.83;25.10;;;;;;;12.64;70.34;100705.84;4927364;28;20123;-72
2021/11/15 01:13:45;;;;;;;56.25;26.30;;;;;;;12.66;70.11;100698.31;4933983;28;20035;-72
2021/11/15 01:16:10;;;;;;;58.72;26.60;;;;;;;12.56;70.46;100704.28;4935625;28;20043;-72
2021/11/15 01:18:41;;;;;;;57.92;26.20;;;;;;;12.44;70.98;100706.97;4946120;28;20036;-73
2021/11/15 01:21:08;;;;;;;57.05;27.17;;;;;;;12.53;70.52;100707.44;4939556;28;20110;-72
2021/11/15 01:23:34;;;;;;;60.45;26.75;;;;;;;12.46;70.75;100709.44;4945182;28;20027;-72
2021/11/15 01:26:00;;;;;;;59.35;27.45;;;;;;;12.57;70.47;100708.63;4936366;28;20035;-72
2021/11/15 01:28:25;;;;;;;53.78;27.73;;;;;;;12.64;70.34;100713.94;4932842;28;20055;-73
2021/11/15 01:30:51;;;;;;;52.03;27.27;;;;;;;12.59;70.12;100703.00;4952730;28;20043;-72
2021/11/15 01:33:16;;;;;;;52.83;26.52;;;;;;;12.73;69.72;100707.13;4930199;28;20441;-72
2021/11/15 01:35:42;;;;;;;53.40;27.25;;;;;;;12.62;70.08;100704.41;4944141;28;20039;-72
2021/11/15 01:38:08;;;;;;;53.90;26.98;;;;;;;12.21;71.28;100702.31;4922931;28;20527;-72
2021/11/15 01:40:34;;;;;;;56.85;28.15;;;;;;;12.49;70.62;100705.47;4941075;28;20027;-72
2021/11/15 01:43:01;;;;;;;65.30;27.92;;;;;;;12.42;70.69;100708.25;4942646;28;20043;-72
2021/11/15 01:45:29;;;;;;;52.47;26.15;;;;;;;12.46;70.48;100706.72;4938693;28;20290;-72
2021/11/15 01:47:58;;;;;;;56.65;28.85;;;;;;;12.47;70.54;100721.06;4941579;28;20151;-72
2021/11/15 01:50:24;;;;;;;57.58;27.98;;;;;;;12.48;70.44;100714.63;4943956;28;20035;-73
2021/11/15 01:52:51;;;;;;;49.08;24.55;;;;;;;12.51;70.02;100711.44;4940491;28;20058;-72
2021/11/15 01:55:19;;;;;;;50.22;25.23;;;;;;;12.46;69.91;100709.44;4936999;28;20032;-72
2021/11/15 01:57:46;;;;;;;57.50;30.00;;;;;;;12.66;69.43;100713.69;4928942;28;20504;-72
2021/11/15 02:00:17;;;;;;;59.35;29.30;;;;;;;12.63;69.38;100708.75;4940681;28;20035;-72
2021/11/15 02:02:43;;;;;;;55.13;28.80;;;;;;;12.69;68.97;100708.66;4931396;28;20036;-73
2021/11/15 02:05:09;;;;;;;69.15;31.10;;;;;;;12.72;69.14;100710.06;4947080;28;20039;-73
2021/11/15 02:07:35;;;;;;;54.20;30.85;;;;;;;12.70;68.98;100704.06;4930410;28;20107;-72
2021/11/15 02:10:02;;;;;;;63.92;31.80;;;;;;;12.59;69.43;100703.00;4947300;28;20041;-72
2021/11/15 02:12:28;;;;;;;60.00;30.48;;;;;;;12.62;69.01;100701.72;4929834;28;20098;-72
2021/11/15 02:14:53;;;;;;;69.53;32.78;;;;;;;12.58;69.07;100691.34;4936624;28;20040;-73
2021/11/15 02:17:19;;;;;;;66.50;31.85;;;;;;;12.51;69.17;100684.44;4942947;28;20405;-73
2021/11/15 02:19:46;;;;;;;69.55;34.55;;;;;;;12.44;69.47;100682.66;4938923;28;20450;-72
2021/11/15 02:22:12;;;;;;;62.22;31.77;;;;;;;12.43;69.34;100675.59;4935509;28;20428;-72
2021/11/15 02:24:37;;;;;;;61.78;33.10;;;;;;;12.41;69.44;100676.88;4933226;28;20040;-72
2021/11/15 02:27:04;;;;;;;65.47;33.42;;;;;;;12.32;69.53;100681.78;4939696;28;20595;-72
2021/11/15 02:29:30;;;;;;;65.20;34.15;;;;;;;12.35;68.90;100675.09;4926693;28;20058;-72
2021/11/15 02:31:55;;;;;;;65.78;35.92;;;;;;;12.28;69.03;100680.59;4936316;28;20043;-72
2021/11/15 02:34:21;;;;;;;55.63;31.17;;;;;;;12.24;68.02;100669.44;4941326;28;20161;-72
2021/11/15 02:36:48;;;;;;;57.17;30.08;;;;;;;12.28;67.35;100669.78;4945641;28;20025;-72
2021/11/15 02:39:13;;;;;;;71.82;34.40;;;;;;;12.07;68.84;100671.16;4928105;28;20032;-72
2021/11/15 02:41:39;;;;;;;76.63;35.65;;;;;;;12.02;69.33;100674.53;4947086;28;20031;-72
2021/11/15 02:44:07;;;;;;;79.88;36.00;;;;;;;11.98;69.40;100676.00;4935155;28;20122;-72
2021/11/15 02:46:34;;;;;;;86.28;39.58;;;;;;;11.88;69.93;100681.13;4938371;28;20544;-72
2021/11/15 02:49:02;;;;;;;90.53;40.95;;;;;;;11.81;70.31;100671.25;4933768;28;20482;-72
2021/11/15 02:51:27;;;;;;;73.15;35.10;;;;;;;11.82;69.29;100670.19;4942179;28;20783;-72
2021/11/15 02:53:53;;;;;;;70.10;34.30;;;;;;;11.84;68.74;100668.09;4945611;28;20110;-71
2021/11/15 02:56:19;;;;;;;76.72;35.75;;;;;;;11.76;69.23;100670.28;4946485;28;20091;-71
2021/11/15 02:58:45;;;;;;;102.63;43.55;;;;;;;11.61;71.23;100667.97;4926227;28;20042;-71
2021/11/15 03:01:14;;;;;;;104.70;43.28;;;;;;;11.74;70.96;100672.41;4936213;28;20055;-71
2021/11/15 03:03:40;;;;;;;93.03;42.85;;;;;;;11.82;70.91;100672.88;4959664;28;20569;-71
2021/11/15 03:06:06;;;;;;;98.47;40.70;;;;;;;11.89;71.53;100674.69;4938550;28;20043;-71
2021/11/15 03:08:32;;;;;;;105.63;43.60;;;;;;;11.97;71.35;100677.06;4933331;28;20031;-71
2021/11/15 03:11:00;;;;;;;113.05;43.33;;;;;;;12.04;71.19;100675.13;4942626;28;20035;-71
2021/11/15 03:13:29;;;;;;;96.55;42.50;;;;;;;12.17;70.72;100666.03;4929756;28;20045;-71
2021/11/15 03:15:55;;;;;;;118.05;43.17;;;;;;;12.18;70.94;100666.81;4939188;28;20059;-71
2021/11/15 03:18:24;;;;;;;104.40;46.30;;;;;;;12.13;70.92;100667.53;4920136;28;20077;-71
2021/11/15 03:20:58;;;;;;;93.20;42.08;;;;;;;12.14;70.85;100656.50;4940125;28;20046;-71
2021/11/15 03:23:28;;;;;;;90.57;42.50;;;;;;;12.19;70.53;100663.06;4940503;28;20054;-71
2021/11/15 03:25:55;;;;;;;98.10;43.30;;;;;;;12.24;70.48;100663.19;4948904;28;20035;-71
2021/11/15 03:28:24;;;;;;;95.40;42.67;;;;;;;12.28;70.44;100664.38;4933252;28;20047;-71
2021/11/15 03:30:52;;;;;;;92.18;42.00;;;;;;;12.12;70.51;100668.59;4944096;28;20036;-71
2021/11/15 03:33:19;;;;;;;91.63;41.97;;;;;;;11.99;71.46;100665.00;4942951;28;20042;-71
2021/11/15 03:35:45;;;;;;;87.53;41.00;;;;;;;12.15;70.86;100657.31;4943716;28;20031;-71
2021/11/15 03:38:11;;;;;;;85.75;39.50;;;;;;;11.95;71.48;100652.16;4968360;28;20040;-71
2021/11/15 03:40:37;;;;;;;88.88;38.92;;;;;;;11.83;72.03;100652.94;4935865;28;20397;-71
2021/11/15 03:43:05;;;;;;;75.60;36.60;;;;;;;12.06;71.10;100643.31;4934738;28;20036;-71
2021/11/15 03:45:31;;;;;;;79.88;37.30;;;;;;;12.05;71.25;100655.16;4935181;28;21301;-71
2021/11/15 03:47:58;;;;;;;76.05;36.58;;;;;;;12.07;71.05;100646.84;4946395;28;20066;-71
2021/11/15 03:50:24;;;;;;;72.55;34.60;;;;;;;11.78;71.97;100647.41;4936010;28;20032;-71
2021/11/15 03:52:50;;;;;;;72.32;35.53;;;;;;;11.73;72.38;100643.75;4922328;28;20122;-71
2021/11/15 03:55:18;;;;;;;66.07;33.88;;;;;;;11.81;71.87;100638.06;4944101;28;20031;-71
2021/11/15 03:57:45;;;;;;;64.75;33.33;;;;;;;12.04;71.10;100636.50;4919310;28;20808;-71
2021/11/15 04:00:16;;;;;;;69.85;33.47;;;;;;;12.05;70.89;100638.97;4936184;28;20062;-72
2021/11/15 04:02:43;;;;;;;72.80;33.92;;;;;;;12.13;70.68;100643.22;4945062;28;20134;-71
2021/11/15 04:05:11;;;;;;;66.07;32.58;;;;;;;11.94;71.48;100647.81;4935148;28;20049;-71
2021/11/15 04:07:41;;;;;;;64.10;32.92;;;;;;;12.03;71.06;100640.25;4942997;28;20523;-71
2021/11/15 04:10:12;;;;;;;72.25;32.65;;;;;;;12.03;70.97;100651.06;4937657;28;20074;-71
2021/11/15 04:12:40;;;;;;;71.57;33.83;;;;;;;12.17;70.53;100648.97;4935770;28;20109;-71
2021/11/15 04:15:11;;;;;;;69.10;33.03;;;;;;;12.17;70.57;100644.41;4942320;28;20106;-72
2021/11/15 04:17:38;;;;;;;66.97;33.10;;;;;;;12.06;70.74;100640.63;4944920;28;20043;-71
2021/11/15 04:20:06;;;;;;;69.28;33.60;;;;;;;11.98;70.97;100644.44;4988338;28;20396;-72
2021/11/15 04:22:31;;;;;;;70.22;33.35;;;;;;;12.09;70.79;100639.34;4944639;28;20044;-71
2021/11/15 04:24:57;;;;;;;68.70;33.22;;;;;;;11.98;71.13;100635.50;4935484;28;20544;-71
2021/11/15 04:27:23;;;;;;;73.15;32.42;;;;;;;12.02;70.73;100634.03;4952146;28;20051;-71
2021/11/15 04:29:48;;;;;;;62.05;32.70;;;;;;;12.00;70.83;100634.28;4933709;28;20533;-71
2021/11/15 04:32:14;;;;;;;72.40;33.50;;;;;;;12.06;70.48;100632.50;4945697;28;20028;-71
2021/11/15 04:34:40;;;;;;;69.38;32.63;;;;;;;11.91;70.90;100637.47;4933930;28;20039;-71
2021/11/15 04:37:06;;;;;;;78.05;35.58;;;;;;;11.54;72.38;100639.22;4955623;28;20035;-73
2021/11/15 04:39:32;;;;;;;69.25;34.70;;;;;;;11.91;71.07;100641.03;4923298;28;20073;-71
2021/11/15 04:41:58;;;;;;;76.75;35.28;;;;;;;11.98;71.08;100635.50;4944886;28;20035;-71
2021/11/15 04:44:24;;;;;;;71.07;35.20;;;;;;;12.04;70.84;100633.81;4931707;28;20031;-71
2021/11/15 04:46:50;;;;;;;79.35;36.90;;;;;;;12.00;70.76;100636.13;4937222;28;20043;-71
2021/11/15 04:49:15;;;;;;;79.25;34.58;;;;;;;12.00;70.68;100633.44;4940024;28;20042;-71
2021/11/15 04:51:41;;;;;;;70.82;34.00;;;;;;;11.95;70.50;100633.28;4941071;28;20212;-71
2021/11/15 04:54:07;;;;;;;70.95;33.53;;;;;;;11.95;70.73;100638.66;4954823;28;20031;-71
2021/11/15 04:56:33;;;;;;;65.45;30.05;;;;;;;11.88;71.17;100630.69;4938158;28;20039;-71
2021/11/15 04:59:01;;;;;;;72.47;30.42;;;;;;;11.88;71.23;100633.38;4935096;28;20094;-70
2021/11/15 05:01:27;;;;;;;70.15;30.77;;;;;;;11.74;71.53;100631.91;4917839;28;20437;-71
2021/11/15 05:03:53;;;;;;;71.40;30.92;;;;;;;11.95;70.94;100630.56;4930664;28;20122;-71
2021/11/15 05:06:19;;;;;;;78.25;31.90;;;;;;;11.94;71.19;100628.94;4948780;28;20106;-71
2021/11/15 05:08:46;;;;;;;70.25;29.13;;;;;;;11.78;71.62;100636.63;4938457;28;20499;-71
2021/11/15 05:11:12;;;;;;;64.32;27.65;;;;;;;11.15;73.87;100622.47;4948801;28;20034;-71
2021/11/15 05:13:37;;;;;;;77.10;29.40;;;;;;;11.52;73.04;100627.81;4938371;28;20035;-71
2021/11/15 05:16:03;;;;;;;74.03;28.83;;;;;;;11.36;73.32;100626.56;4939165;28;20043;-71
2021/11/15 05:18:28;;;;;;;60.50;26.85;;;;;;;11.42;73.25;100632.94;4937517;28;20300;-71
2021/11/15 05:20:55;;;;;;;68.00;27.77;;;;;;;11.61;72.76;100630.22;4938438;28;20036;-73
2021/11/15 05:23:21;;;;;;;66.68;26.98;;;;;;;11.66;72.32;100633.03;4927001;28;20262;-71
2021/11/15 05:25:46;;;;;;;71.65;30.10;;;;;;;11.49;72.68;100630.97;4937698;28;20062;-73
2021/11/15 05:28:12;;;;;;;69.70;28.73;;;;;;;11.60;72.96;100633.97;4940032;28;20406;-73
2021/11/15 05:30:38;;;;;;;64.78;27.38;;;;;;;11.63;73.05;100630.81;4937889;28;20102;-73
2021/11/15 05:33:03;;;;;;;74.20;28.50;;;;;;;11.71;72.24;100625.94;4940045;28;20051;-71
2021/11/15 05:35:29;;;;;;;73.35;27.55;;;;;;;11.80;71.75;100621.00;4939169;28;21264;-71
2021/11/15 05:37:56;;;;;;;70.93;27.90;;;;;;;11.80;71.73;100614.81;4934251;28;20062;-73
2021/11/15 05:40:25;;;;;;;66.53;27.55;;;;;;;11.76;71.90;100611.72;4947770;28;20035;-73
2021/11/15 05:42:53;;;;;;;69.95;28.10;;;;;;;11.85;71.58;100604.16;4942444;28;20034;-72
2021/11/15 05:45:19;;;;;;;71.20;28.17;;;;;;;11.80;71.95;100615.63;4931653;28;20061;-72
2021/11/15 05:47:45;;;;;;;71.82;28.23;;;;;;;11.91;71.43;100605.94;4951413;28;20109;-73
2021/11/15 05:50:12;;;;;;;76.93;27.13;;;;;;;11.91;71.47;100603.22;4956163;28;20615;-73
2021/11/15 05:52:42;;;;;;;75.07;29.00;;;;;;;11.90;71.66;100604.28;4929024;28;20211;-72
2021/11/15 05:55:10;;;;;;;73.18;27.85;;;;;;;11.94;71.10;100607.31;4949661;28;20035;-72
2021/11/15 05:57:35;;;;;;;72.75;27.13;;;;;;;11.93;71.54;100605.69;4934585;28;20036;-72
2021/11/15 06:00:06;;;;;;;71.18;28.67;;;;;;;11.96;71.51;100605.22;4930506;28;20035;-73
2021/11/15 06:02:31;;;;;;;70.55;27.85;;;;;;;11.65;71.70;100602.56;4951773;28;20035;-73
2021/11/15 06:04:57;;;;;;;72.70;28.65;;;;;;;12.04;71.31;100610.31;4934611;28;20042;-73
2021/11/15 06:07:22;;;;;;;78.60;28.38;;;;;;;12.01;71.23;100613.47;4950293;28;20027;-73
2021/11/15 06:09:48;;;;;;;68.40;27.50;;;;;;;11.99;71.15;100612.84;4937805;28;20531;-72
2021/11/15 06:12:13;;;;;;;72.93;28.75;;;;;;;12.04;70.70;100617.63;4952928;28;20110;-73
2021/11/15 06:14:39;;;;;;;71.32;28.48;;;;;;;12.17;70.50;100622.81;4934825;28;20114;-73
2021/11/15 06:17:05;;;;;;;71.68;27.83;;;;;;;12.19;70.51;100622.56;4941171;28;20064;-73
2021/11/15 06:19:31;;;;;;;74.47;29.33;;;;;;;12.06;71.00;100613.63;4935538;28;20131;-73
2021/11/15 06:21:57;;;;;;;69.53;28.10;;;;;;;12.23;70.22;100627.28;4943470;28;20038;-73
2021/11/15 06:24:23;;;;;;;79.03;30.05;;;;;;;12.14;70.47;100623.28;4925011;28;20035;-73
2021/11/15 06:26:48;;;;;;;78.95;29.55;;;;;;;12.08;70.55;100627.72;4935883;28;20102;-72
2021/11/15 06:29:14;;;;;;;76.78;30.30;;;;;;;12.10;70.76;100631.00;4933156;28;20090;-73
2021/11/15 06:31:40;;;;;;;74.47;30.17;;;;;;;12.21;70.13;100629.41;4928829;28;20043;-73
2021/11/15 06:34:05;;;;;;;75.32;30.02;;;;;;;12.12;70.62;100636.19;4945975;28;20526;-74
2021/11/15 06:36:31;;;;;;;67.88;28.63;;;;;;;12.35;70.03;100640.00;4922064;28;20113;-75
2021/11/15 06:38:58;;;;;;;73.20;30.00;;;;;;;12.29;70.12;100641.72;4933894;28;20031;-74
2021/11/15 06:41:25;;;;;;;71.45;29.20;;;;;;;12.24;70.09;100637.03;4942387;28;20059;-73
2021/11/15 06:43:51;;;;;;;77.45;30.50;;;;;;;12.40;69.62;100642.81;4938802;28;20035;-75
2021/11/15 06:46:18;;;;;;;71.57;30.33;;;;;;;12.25;70.15;100644.09;4933461;28;20031;-75
2021/11/15 06:48:44;;;;;;;84.20;31.98;;;;;;;12.33;70.16;100631.28;4932761;28;20039;-75
2021/11/15 06:51:12;;;;;;;72.88;29.35;;;;;;;12.22;70.12;100647.25;4930392;28;20039;-75
2021/11/15 06:53:40;;;;;;;74.68;31.02;;;;;;;12.27;69.93;100641.97;4939107;28;20035;-75
2021/11/15 06:56:07;;;;;;;73.60;30.30;;;;;;;12.39;69.83;100650.13;4932416;28;20035;-75
2021/11/15 06:58:34;;;;;;;80.35;32.05;;;;;;;12.41;69.53;100647.16;4939379;28;20050;-75
2021/11/15 07:01:00;;;;;;;83.50;31.95;;;;;;;12.41;69.70;100648.00;4940238;28;20034;-75
2021/11/15 07:03:26;;;;;;;76.88;31.10;;;;;;;12.42;69.57;100648.81;4948321;28;20082;-74
2021/11/15 07:05:51;;;;;;;75.32;30.30;;;;;;;12.39;69.78;100654.69;4931680;28;20050;-75
2021/11/15 07:08:17;;;;;;;79.90;31.13;;;;;;;12.45;69.21;100659.16;4936602;28;20040;-75
2021/11/15 07:10:42;;;;;;;77.88;31.63;;;;;;;12.47;69.08;100654.34;4945519;28;20488;-76
2021/11/15 07:13:08;;;;;;;76.50;31.90;;;;;;;12.51;69.16;100650.13;4928401;28;20031;-77
2021/11/15 07:15:35;;;;;;;78.55;31.52;;;;;;;12.47;69.22;100654.34;4955129;28;20095;-75
2021/11/15 07:18:00;;;;;;;66.97;29.67;;;;;;;12.46;69.36;100647.28;4924814;28;20039;-75
2021/11/15 07:20:26;;;;;;;68.43;29.20;;;;;;;12.57;69.07;100649.19;4938027;28;20023;-74
2021/11/15 07:22:52;;;;;;;70.65;29.30;;;;;;;12.53;68.79;100650.69;4966501;28;20056;-73
2021/11/15 07:25:20;;;;;;;73.32;30.67;;;;;;;12.46;69.34;100657.28;4934661;28;20047;-72
2021/11/15 07:27:50;;;;;;;71.82;29.98;;;;;;;12.58;68.85;100667.03;4930615;28;20049;-73
2021/11/15 07:30:16;;;;;;;71.20;30.25;;;;;;;12.60;68.75;100674.94;4925049;28;20046;-73
2021/11/15 07:32:42;;;;;;;75.97;29.25;;;;;;;12.72;68.27;100678.47;4946197;28;20035;-74
2021/11/15 07:35:08;;;;;;;68.15;29.92;;;;;;;12.81;68.00;100681.63;4944294;28;20057;-73
2021/11/15 07:37:35;;;;;;;66.25;29.75;;;;;;;12.72;67.86;100683.03;4941232;28;20032;-71
2021/11/15 07:40:06;;;;;;;69.57;29.52;;;;;;;12.51;68.86;100685.25;4964409;28;20035;-72
2021/11/15 07:42:31;;;;;;;69.03;29.48;;;;;;;12.33;69.67;100678.03;4944774;28;20118;-71
2021/11/15 07:44:57;;;;;;;69.15;29.52;;;;;;;12.26;70.00;100677.31;4957536;28;20103;-71
2021/11/15 07:47:23;;;;;;;73.85;30.52;;;;;;;12.20;70.35;100684.47;4954668;28;20529;-72
2021/11/15 07:49:48;;;;;;;69.60;28.08;;;;;;;12.22;70.22;100689.63;4939798;28;20040;-71
2021/11/15 07:52:16;;;;;;;75.00;29.90;;;;;;;12.49;69.67;100691.94;4940137;28;20039;-71
2021/11/15 07:54:43;;;;;;;69.25;28.98;;;;;;;12.56;69.28;100690.78;4943039;28;20523;-70
2021/11/15 07:57:09;;;;;;;73.88;27.92;;;;;;;12.64;68.84;100681.50;4953482;28;20086;-70
2021/11/15 07:59:36;;;;;;;71.68;28.88;;;;;;;12.69;68.91;100692.44;4920109;28;20035;-70
2021/11/15 08:02:03;;;;;;;64.68;27.35;;;;;;;12.83;68.37;100693.03;4937141;28;20508;-70
2021/11/15 08:04:28;;;;;;;60.78;26.48;;;;;;;12.71;68.62;100689.50;4936580;28;20036;-70
2021/11/15 08:06:54;;;;;;;64.63;26.58;;;;;;;12.79;68.83;100694.56;4944454;28;20049;-70
2021/11/15 08:09:20;;;;;;;64.38;26.98;;;;;;;12.89;68.48;100692.09;4937085;28;20065;-70
2021/11/15 08:11:49;;;;;;;57.90;25.08;;;;;;;12.99;68.09;100696.09;4945883;28;20036;-70
2021/11/15 08:14:16;;;;;;;54.30;23.77;;;;;;;12.93;67.99;100688.91;4927583;28;20037;-71
2021/11/15 08:16:41;;;;;;;47.25;21.20;;;;;;;12.91;67.99;100688.34;4936243;28;20424;-70
2021/11/15 08:19:08;;;;;;;43.05;20.95;;;;;;;12.77;68.33;100685.84;4945698;28;20078;-70
2021/11/15 08:21:34;;;;;;;45.05;19.67;;;;;;;13.03;67.85;100678.34;4937683;28;20038;-70
2021/11/15 08:24:25;;;;;;;37.17;19.00;;;;;;;12.94;67.83;100693.25;4925886;28;20063;-70
2021/11/15 08:27:01;;;;;;;42.15;20.05;;;;;;;12.77;68.43;100685.06;4950596;28;20118;-69
2021/11/15 08:29:31;;;;;;;40.58;19.77;;;;;;;12.82;68.29;100699.50;4926432;28;20044;-70
2021/11/15 08:32:00;;;;;;;45.33;20.35;;;;;;;13.02;67.95;100698.31;4960296;28;20038;-70
2021/11/15 08:34:26;;;;;;;43.15;20.23;;;;;;;13.08;67.82;100691.97;4929984;28;20040;-70
2021/11/15 08:36:53;;;;;;;39.42;19.45;;;;;;;13.06;67.93;100696.78;4940363;28;20046;-70
2021/11/15 08:39:21;;;;;;;38.50;18.98;;;;;;;12.98;68.04;100703.41;4945171;28;20540;-69
2021/11/15 08:41:49;;;;;;;41.83;19.60;;;;;;;12.88;68.59;100703.16;4937301;28;20038;-69
2021/11/15 08:44:17;;;;;;;42.72;18.92;;;;;;;13.13;67.68;100702.91;4940124;28;20452;-69
2021/11/15 08:46:45;;;;;;;40.67;19.45;;;;;;;13.13;67.96;100697.50;4921300;28;20432;-68
2021/11/15 08:49:14;;;;;;;39.50;18.40;;;;;;;13.26;67.59;100690.22;4938305;28;20135;-68
2021/11/15 08:51:41;;;;;;;39.10;18.67;;;;;;;13.38;67.29;100693.72;4926856;28;20035;-70
2021/11/15 08:54:09;;;;;;;38.88;18.42;;;;;;;13.57;66.50;100690.91;4938896;28;20135;-70
2021/11/15 08:56:37;;;;;;;35.08;18.23;;;;;;;13.52;66.69;100688.09;4939480;28;20039;-70
2021/11/15 08:59:03;;;;;;;37.53;18.17;;;;;;;13.43;66.86;100693.03;4930489;28;20031;-70
2021/11/15 09:01:28;;;;;;;31.98;16.35;;;;;;;13.42;66.74;100700.34;4924191;28;20035;-70
2021/11/15 09:03:54;;;;;;;34.55;17.70;;;;;;;13.63;66.33;100699.94;4949181;28;20035;-70
2021/11/15 09:06:22;;;;;;;34.92;17.95;;;;;;;13.72;66.05;100714.72;4947133;28;20119;-70
2021/11/15 09:08:49;;;;;;;33.90;17.42;;;;;;;13.82;65.57;100711.44;4950389;28;20035;-70
2021/11/15 09:11:15;;;;;;;34.53;17.92;;;;;;;14.01;65.26;100701.22;4933706;28;20020;-70
2021/11/15 09:13:43;;;;;;;33.53;17.77;;;;;;;14.18;64.63;100690.44;4937942;28;20039;-70
2021/11/15 09:16:09;;;;;;;39.58;17.60;;;;;;;13.87;65.47;100698.78;4927996;28;20098;-70
2021/11/15 09:18:36;;;;;;;33.90;17.50;;;;;;;13.94;65.66;100697.81;4937978;28;20615;-70
2021/11/15 09:21:06;;;;;;;35.10;17.95;;;;;;;13.81;65.82;100704.38;4937926;28;20036;-70
2021/11/15 09:23:40;;;;;;;33.83;17.17;;;;;;;13.87;65.95;100696.09;4926430;28;20060;-70
2021/11/15 09:26:07;;;;;;;34.83;17.77;;;;;;;14.02;65.58;100700.16;4938462;28;20054;-70
2021/11/15 09:28:33;;;;;;;34.10;17.70;;;;;;;13.99;65.40;100708.75;4928945;28;20059;-71
2021/11/15 09:31:00;;;;;;;32.40;17.38;;;;;;;13.96;65.54;100701.97;4941206;28;20118;-71
2021/11/15 09:33:25;;;;;;;35.15;18.00;;;;;;;14.08;64.89;100701.88;4922075;28;20488;-70
2021/11/15 09:35:55;;;;;;;31.92;17.15;;;;;;;14.03;64.69;100704.50;4921114;28;20110;-70
2021/11/15 09:38:22;;;;;;;34.40;18.30;;;;;;;14.01;65.41;100704.75;4944618;28;20051;-70
2021/11/15 09:40:52;;;;;;;40.78;19.75;;;;;;;13.98;65.13;100702.53;4930879;28;20489;-71
2021/11/15 09:43:18;;;;;;;37.70;19.90;;;;;;;13.90;65.30;100695.59;4926527;28;20552;-70
2021/11/15 09:45:44;;;;;;;40.92;19.45;;;;;;;14.15;64.98;100696.34;4953646;28;20521;-70
2021/11/15 09:48:11;;;;;;;43.03;19.88;;;;;;;14.33;64.33;100698.03;4949846;28;20031;-70
2021/11/15 09:50:38;;;;;;;41.83;20.88;;;;;;;14.45;64.35;100698.78;4936296;28;20616;-70
2021/11/15 09:53:06;;;;;;;44.55;21.88;;;;;;;14.47;64.03;100701.22;4929634;28;20122;-71
2021/11/15 09:55:32;;;;;;;41.22;19.88;;;;;;;14.55;63.98;100698.13;4943869;28;20038;-69
2021/11/15 09:57:59;;;;;;;43.67;22.08;;;;;;;14.52;63.98;100697.81;4928663;28;20584;-70
2021/11/15 10:00:27;;;;;;;42.47;21.58;;;;;;;14.45;64.01;100698.78;4936262;28;20065;-70
2021/11/15 10:02:57;;;;;;;45.80;22.60;;;;;;;14.46;64.18;100703.13;4923761;28;20043;-68
2021/11/15 10:05:23;;;;;;;46.47;20.98;;;;;;;14.38;64.13;100700.00;4937545;28;20031;-69
2021/11/15 10:07:54;;;;;;;49.20;23.13;;;;;;;14.63;64.02;100702.31;4951908;28;20063;-69
2021/11/15 10:10:57;;;;;;;46.05;22.55;;;;;;;14.48;63.40;100703.72;4932610;28;20043;-69
2021/11/15 10:13:34;;;;;;;43.58;22.30;;;;;;;14.61;63.77;100688.19;4950404;28;20047;-69
2021/11/15 10:16:00;;;;;;;55.63;24.70;;;;;;;14.70;63.61;100688.63;4922617;28;20040;-69
2021/11/15 10:18:51;;;;;;;41.63;22.75;;;;;;;14.77;63.12;100694.69;4962154;28;20231;-69
2021/11/15 10:21:26;;;;;;;45.45;22.45;;;;;;;14.72;63.53;100700.03;4948872;28;20062;-70
2021/11/15 10:23:55;;;;;;;43.15;21.48;;;;;;;14.99;62.84;100707.50;4930905;28;20049;-69
2021/11/15 10:26:46;;;;;;;43.65;22.13;;;;;;;14.43;63.33;100708.22;4948838;28;20042;-69
2021/11/15 10:29:16;;;;;;;40.03;22.35;;;;;;;14.06;64.59;100706.72;4936758;28;20046;-69
2021/11/15 10:31:49;;;;;;;48.80;23.63;;;;;;;14.50;63.90;100706.16;4919191;28;20046;-69
2021/11/15 10:34:25;;;;;;;46.35;22.15;;;;;;;14.60;63.26;100706.31;4943265;28;20518;-69
2021/11/15 10:37:16;;;;;;;44.25;22.20;;;;;;;14.91;62.34;100701.41;4936930;28;20042;-69
2021/11/15 10:39:51;;;;;;;42.92;21.98;;;;;;;15.05;62.05;100706.53;4932847;28;20043;-69
2021/11/15 10:42:25;;;;;;;42.10;21.75;;;;;;;14.81;62.43;100698.56;4942095;28;20027;-70
2021/11/15 10:44:57;;;;;;;43.70;22.13;;;;;;;14.68;62.71;100693.44;4930520;28;20041;-68
2021/11/15 10:47:44;;;;;;;38.75;21.73;;;;;;;14.55;62.74;100708.97;4932758;28;20035;-69
2021/11/15 10:53:00;;;;;;;41.85;21.65;;;;;;;14.97;61.75;100702.34;4937052;28;20126;-68
2021/11/15 10:55:28;;;;;;;38.25;21.05;;;;;;;14.86;62.26;100692.41;4933649;28;20545;-69
2021/11/15 10:57:54;;;;;;;40.90;22.23;;;;;;;15.03;61.74;100695.09;4931469;28;20031;-71
2021/11/15 11:00:22;;;;;;;39.90;21.63;;;;;;;14.97;61.10;100687.94;4931131;28;20397;-74
2021/11/15 11:02:52;;;;;;;38.30;21.95;;;;;;;14.85;62.19;100685.34;4941566;28;20118;-66
2021/11/15 11:05:24;;;;;;;34.50;21.15;;;;;;;14.52;62.80;100679.63;4928891;28;20035;-66
2021/11/15 11:08:04;;;;;;;39.92;21.27;;;;;;;14.84;62.21;100687.22;4939784;28;20049;-66
2021/11/15 11:10:31;;;;;;;37.67;21.65;;;;;;;14.92;61.99;100683.28;4926222;28;20035;-66
2021/11/15 11:13:00;;;;;;;38.55;22.08;;;;;;;14.99;61.89;100696.66;4931857;28;20032;-65